sensor_id;sensor_type;location;lat;lon;timestamp;pressure;altitude;pressure_sealevel;temperature;humidity
68525;BME280;55524;51.380;13.372;2022-12-31T00:01:15;99916.75;;;10.56;95.00
68525;BME280;55524;51.380;13.372;2022-12-31T00:03:42;99909.03;;;10.51;95.78
68525;BME280;55524;51.380;13.372;2022-12-31T00:06:29;99893.31;;;10.48;95.58
68525;BME280;55524;51.380;13.372;2022-12-31T00:08:58;99901.03;;;10.53;95.46
68525;BME280;55524;51.380;13.372;2022-12-31T00:11:26;99909.63;;;10.58;95.15
68525;BME280;55524;51.380;13.372;2022-12-31T00:13:53;99907.75;;;10.60;95.50
68525;BME280;55524;51.380;13.372;2022-12-31T00:16:28;99924.47;;;10.61;95.32
68525;BME280;55524;51.380;13.372;2022-12-31T00:18:56;99925.84;;;10.69;95.04
68525;BME280;55524;51.380;13.372;2022-12-31T00:21:28;99940.81;;;10.69;94.99
68525;BME280;55524;51.380;13.372;2022-12-31T00:23:55;99946.31;;;10.64;95.08
68525;BME280;55524;51.380;13.372;2022-12-31T00:26:24;99940.25;;;10.62;95.79
68525;BME280;55524;51.380;13.372;2022-12-31T00:28:51;99941.25;;;10.59;96.65
68525;BME280;55524;51.380;13.372;2022-12-31T00:31:20;99946.31;;;10.64;96.13
68525;BME280;55524;51.380;13.372;2022-12-31T00:33:47;99941.34;;;10.58;96.09
68525;BME280;55524;51.380;13.372;2022-12-31T00:36:29;99947.34;;;10.62;96.69
68525;BME280;55524;51.380;13.372;2022-12-31T00:38:56;99944.25;;;10.71;95.69
68525;BME280;55524;51.380;13.372;2022-12-31T00:41:23;99950.69;;;10.65;96.56
68525;BME280;55524;51.380;13.372;2022-12-31T00:43:50;99957.13;;;10.78;96.32
68525;BME280;55524;51.380;13.372;2022-12-31T00:46:18;99974.91;;;10.75;96.76
68525;BME280;55524;51.380;13.372;2022-12-31T00:48:44;99975.03;;;10.72;97.08
68525;BME280;55524;51.380;13.372;2022-12-31T00:51:13;99986.63;;;10.69;97.26
68525;BME280;55524;51.380;13.372;2022-12-31T00:53:41;100004.25;;;10.69;98.02
68525;BME280;55524;51.380;13.372;2022-12-31T00:56:13;100001.22;;;10.78;97.82
68525;BME280;55524;51.380;13.372;2022-12-31T00:58:40;100007.34;;;10.78;97.27
68525;BME280;55524;51.380;13.372;2022-12-31T01:01:32;100000.34;;;10.77;97.06
68525;BME280;55524;51.380;13.372;2022-12-31T01:04:14;100012.41;;;10.83;97.64
68525;BME280;55524;51.380;13.372;2022-12-31T01:06:42;100018.09;;;10.94;96.57
68525;BME280;55524;51.380;13.372;2022-12-31T01:09:10;100018.81;;;10.98;96.48
68525;BME280;55524;51.380;13.372;2022-12-31T01:11:37;100010.53;;;11.05;96.10
68525;BME280;55524;51.380;13.372;2022-12-31T01:14:08;100020.59;;;10.97;97.21
68525;BME280;55524;51.380;13.372;2022-12-31T01:16:55;100025.56;;;11.03;97.18
68525;BME280;55524;51.380;13.372;2022-12-31T01:19:24;100023.78;;;11.04;97.18
68525;BME280;55524;51.380;13.372;2022-12-31T01:21:52;100027.25;;;11.06;96.95
68525;BME280;55524;51.380;13.372;2022-12-31T01:24:19;100037.81;;;11.06;96.59
68525;BME280;55524;51.380;13.372;2022-12-31T01:26:46;100034.94;;;11.11;96.55
68525;BME280;55524;51.380;13.372;2022-12-31T01:29:13;100049.16;;;11.08;97.60
68525;BME280;55524;51.380;13.372;2022-12-31T01:31:40;100045.66;;;11.07;97.58
68525;BME280;55524;51.380;13.372;2022-12-31T01:34:06;100047.97;;;11.15;96.91
68525;BME280;55524;51.380;13.372;2022-12-31T01:36:35;100039.88;;;11.18;96.54
68525;BME280;55524;51.380;13.372;2022-12-31T01:39:03;100036.25;;;11.21;97.14
68525;BME280;55524;51.380;13.372;2022-12-31T01:41:33;100035.53;;;11.17;96.68
68525;BME280;55524;51.380;13.372;2022-12-31T01:44:02;100046.97;;;11.18;96.97
68525;BME280;55524;51.380;13.372;2022-12-31T01:46:52;100046.97;;;11.18;96.49
68525;BME280;55524;51.380;13.372;2022-12-31T01:49:39;100039.09;;;11.16;96.53
68525;BME280;55524;51.380;13.372;2022-12-31T01:52:24;100051.47;;;11.16;96.72
68525;BME280;55524;51.380;13.372;2022-12-31T01:54:59;100062.34;;;11.10;97.58
68525;BME280;55524;51.380;13.372;2022-12-31T01:57:29;100055.84;;;11.17;97.23
68525;BME280;55524;51.380;13.372;2022-12-31T01:59:56;100062.34;;;11.10;98.11
68525;BME280;55524;51.380;13.372;2022-12-31T02:02:23;100056.19;;;11.09;97.93
68525;BME280;55524;51.380;13.372;2022-12-31T02:04:51;100061.41;;;11.11;98.41
68525;BME280;55524;51.380;13.372;2022-12-31T02:07:19;100067.88;;;11.03;98.81
68525;BME280;55524;51.380;13.372;2022-12-31T02:09:46;100065.19;;;11.05;99.09
68525;BME280;55524;51.380;13.372;2022-12-31T02:12:12;100050.09;;;11.07;98.93
68525;BME280;55524;51.380;13.372;2022-12-31T02:14:44;100051.81;;;11.08;98.87
68525;BME280;55524;51.380;13.372;2022-12-31T02:22:46;100041.03;;;11.13;98.83
68525;BME280;55524;51.380;13.372;2022-12-31T02:30:56;100036.03;;;11.25;98.94
68525;BME280;55524;51.380;13.372;2022-12-31T02:33:31;100036.75;;;11.29;99.15
68525;BME280;55524;51.380;13.372;2022-12-31T02:36:19;100037.81;;;11.25;99.76
68525;BME280;55524;51.380;13.372;2022-12-31T02:38:48;100027.06;;;11.28;100.00
68525;BME280;55524;51.380;13.372;2022-12-31T02:41:19;100023.16;;;11.37;100.00
68525;BME280;55524;51.380;13.372;2022-12-31T02:52:22;100018.75;;;11.54;98.96
68525;BME280;55524;51.380;13.372;2022-12-31T02:58:18;100039.84;;;11.56;99.17
68525;BME280;55524;51.380;13.372;2022-12-31T03:00:50;100043.31;;;11.58;98.80
68525;BME280;55524;51.380;13.372;2022-12-31T03:03:37;100049.22;;;11.63;99.58
68525;BME280;55524;51.380;13.372;2022-12-31T03:06:05;100045.50;;;11.67;98.62
68525;BME280;55524;51.380;13.372;2022-12-31T03:08:33;100028.63;;;11.70;98.91
68525;BME280;55524;51.380;13.372;2022-12-31T03:11:19;100044.28;;;11.74;98.50
68525;BME280;55524;51.380;13.372;2022-12-31T03:14:04;100053.88;;;11.77;98.45
68525;BME280;55524;51.380;13.372;2022-12-31T03:16:30;100055.44;;;11.81;98.73
68525;BME280;55524;51.380;13.372;2022-12-31T03:18:56;100060.16;;;11.93;97.66
68525;BME280;55524;51.380;13.372;2022-12-31T03:21:41;100054.84;;;11.93;98.01
68525;BME280;55524;51.380;13.372;2022-12-31T03:24:26;100053.53;;;12.02;97.33
68525;BME280;55524;51.380;13.372;2022-12-31T03:27:10;100043.41;;;12.10;96.45
68525;BME280;55524;51.380;13.372;2022-12-31T03:29:36;100049.94;;;12.03;97.40
68525;BME280;55524;51.380;13.372;2022-12-31T03:32:03;100047.25;;;12.04;97.34
68525;BME280;55524;51.380;13.372;2022-12-31T03:34:29;100043.41;;;12.10;97.61
68525;BME280;55524;51.380;13.372;2022-12-31T03:36:55;100034.22;;;12.17;97.19
68525;BME280;55524;51.380;13.372;2022-12-31T03:39:21;100028.16;;;12.15;97.03
68525;BME280;55524;51.380;13.372;2022-12-31T03:41:48;100017.34;;;12.20;96.80
68525;BME280;55524;51.380;13.372;2022-12-31T03:44:14;100016.69;;;12.15;97.21
68525;BME280;55524;51.380;13.372;2022-12-31T03:46:40;100014.84;;;12.17;97.64
68525;BME280;55524;51.380;13.372;2022-12-31T03:49:06;100014.03;;;12.15;97.26
68525;BME280;55524;51.380;13.372;2022-12-31T03:51:33;100018.50;;;12.14;97.47
68525;BME280;55524;51.380;13.372;2022-12-31T03:53:59;100010.47;;;12.16;97.58
68525;BME280;55524;51.380;13.372;2022-12-31T03:56:25;100018.81;;;12.25;97.04
68525;BME280;55524;51.380;13.372;2022-12-31T03:58:51;100004.31;;;12.33;96.94
68525;BME280;55524;51.380;13.372;2022-12-31T04:01:17;100012.31;;;12.31;96.87
68525;BME280;55524;51.380;13.372;2022-12-31T04:03:44;100020.97;;;12.35;96.70
68525;BME280;55524;51.380;13.372;2022-12-31T04:06:10;100025.75;;;12.28;96.43
68525;BME280;55524;51.380;13.372;2022-12-31T04:08:37;100020.28;;;12.31;97.06
68525;BME280;55524;51.380;13.372;2022-12-31T04:11:03;100009.22;;;12.40;96.95
68525;BME280;55524;51.380;13.372;2022-12-31T04:13:29;100016.13;;;12.60;95.12
68525;BME280;55524;51.380;13.372;2022-12-31T04:15:55;100018.94;;;12.57;95.35
68525;BME280;55524;51.380;13.372;2022-12-31T04:18:21;100014.41;;;12.59;95.46
68525;BME280;55524;51.380;13.372;2022-12-31T04:20:48;100016.28;;;12.57;95.26
68525;BME280;55524;51.380;13.372;2022-12-31T04:23:15;100008.94;;;12.62;95.83
68525;BME280;55524;51.380;13.372;2022-12-31T04:25:41;100006.91;;;12.67;95.47
68525;BME280;55524;51.380;13.372;2022-12-31T04:28:07;99993.91;;;12.78;95.02
68525;BME280;55524;51.380;13.372;2022-12-31T04:30:34;100001.97;;;12.77;95.07
68525;BME280;55524;51.380;13.372;2022-12-31T04:33:00;100001.66;;;12.83;94.74
68525;BME280;55524;51.380;13.372;2022-12-31T04:35:26;99986.91;;;12.77;95.55
68525;BME280;55524;51.380;13.372;2022-12-31T04:37:52;99992.59;;;12.87;95.16
68525;BME280;55524;51.380;13.372;2022-12-31T04:40:18;99986.06;;;12.77;96.27
68525;BME280;55524;51.380;13.372;2022-12-31T04:42:45;99983.31;;;12.78;95.78
68525;BME280;55524;51.380;13.372;2022-12-31T04:45:11;99984.22;;;12.95;95.62
68525;BME280;55524;51.380;13.372;2022-12-31T04:47:37;99978.28;;;12.90;95.79
68525;BME280;55524;51.380;13.372;2022-12-31T04:50:04;99983.34;;;12.94;96.19
68525;BME280;55524;51.380;13.372;2022-12-31T04:52:30;99996.78;;;12.91;95.80
68525;BME280;55524;51.380;13.372;2022-12-31T04:54:57;99988.56;;;12.96;95.85
68525;BME280;55524;51.380;13.372;2022-12-31T04:57:23;99983.28;;;12.96;95.38
68525;BME280;55524;51.380;13.372;2022-12-31T04:59:49;99977.19;;;12.94;95.79
68525;BME280;55524;51.380;13.372;2022-12-31T05:02:16;99980.03;;;13.07;95.00
68525;BME280;55524;51.380;13.372;2022-12-31T05:04:42;99982.16;;;13.00;95.65
68525;BME280;55524;51.380;13.372;2022-12-31T05:07:08;99991.31;;;13.10;94.82
68525;BME280;55524;51.380;13.372;2022-12-31T05:09:34;99989.53;;;13.11;94.83
68525;BME280;55524;51.380;13.372;2022-12-31T05:12:00;99990.88;;;13.18;94.62
68525;BME280;55524;51.380;13.372;2022-12-31T05:14:27;99972.56;;;13.13;95.14
68525;BME280;55524;51.380;13.372;2022-12-31T05:16:53;99974.91;;;13.19;94.42
68525;BME280;55524;51.380;13.372;2022-12-31T05:19:19;99958.59;;;13.27;94.01
68525;BME280;55524;51.380;13.372;2022-12-31T05:21:46;99950.91;;;13.21;94.50
68525;BME280;55524;51.380;13.372;2022-12-31T05:24:32;99937.34;;;13.27;94.42
68525;BME280;55524;51.380;13.372;2022-12-31T05:26:58;99931.69;;;13.33;93.82
68525;BME280;55524;51.380;13.372;2022-12-31T05:29:24;99934.00;;;13.39;93.88
68525;BME280;55524;51.380;13.372;2022-12-31T05:31:50;99949.50;;;13.47;93.38
68525;BME280;55524;51.380;13.372;2022-12-31T05:34:17;99963.19;;;13.55;92.97
68525;BME280;55524;51.380;13.372;2022-12-31T05:36:43;99948.94;;;13.56;92.55
68525;BME280;55524;51.380;13.372;2022-12-31T05:39:09;99970.28;;;13.55;92.49
68525;BME280;55524;51.380;13.372;2022-12-31T05:41:36;99946.59;;;13.66;91.71
68525;BME280;55524;51.380;13.372;2022-12-31T05:44:02;99937.09;;;13.62;92.31
68525;BME280;55524;51.380;13.372;2022-12-31T05:46:28;99937.03;;;13.63;92.18
68525;BME280;55524;51.380;13.372;2022-12-31T05:48:54;99940.72;;;13.61;92.42
68525;BME280;55524;51.380;13.372;2022-12-31T05:51:21;99942.19;;;13.66;92.03
68525;BME280;55524;51.380;13.372;2022-12-31T05:53:47;99942.56;;;13.74;91.40
68525;BME280;55524;51.380;13.372;2022-12-31T05:56:13;99939.81;;;13.76;91.22
68525;BME280;55524;51.380;13.372;2022-12-31T05:58:39;99952.34;;;13.74;91.26
68525;BME280;55524;51.380;13.372;2022-12-31T06:01:06;99950.13;;;13.66;91.58
68525;BME280;55524;51.380;13.372;2022-12-31T06:03:32;99953.72;;;13.65;91.71
68525;BME280;55524;51.380;13.372;2022-12-31T06:06:00;99950.94;;;13.83;90.90
68525;BME280;55524;51.380;13.372;2022-12-31T06:08:27;99949.50;;;13.77;91.01
68525;BME280;55524;51.380;13.372;2022-12-31T06:10:53;99946.94;;;13.75;90.93
68525;BME280;55524;51.380;13.372;2022-12-31T06:13:19;99937.59;;;13.68;91.41
68525;BME280;55524;51.380;13.372;2022-12-31T06:15:45;99941.50;;;13.63;92.00
68525;BME280;55524;51.380;13.372;2022-12-31T06:18:11;99944.16;;;13.63;91.89
68525;BME280;55524;51.380;13.372;2022-12-31T06:20:38;99943.03;;;13.67;91.10
68525;BME280;55524;51.380;13.372;2022-12-31T06:23:04;99927.09;;;13.67;91.43
68525;BME280;55524;51.380;13.372;2022-12-31T06:25:32;99959.56;;;13.56;91.97
68525;BME280;55524;51.380;13.372;2022-12-31T06:27:59;99962.63;;;13.64;91.37
68525;BME280;55524;51.380;13.372;2022-12-31T06:30:25;99943.19;;;13.64;91.38
68525;BME280;55524;51.380;13.372;2022-12-31T06:32:51;99969.84;;;13.62;91.79
68525;BME280;55524;51.380;13.372;2022-12-31T06:35:19;99965.03;;;13.69;90.84
68525;BME280;55524;51.380;13.372;2022-12-31T06:37:45;99941.00;;;13.86;90.09
68525;BME280;55524;51.380;13.372;2022-12-31T06:40:12;99929.78;;;13.81;90.30
68525;BME280;55524;51.380;13.372;2022-12-31T06:42:39;99928.66;;;13.85;90.09
68525;BME280;55524;51.380;13.372;2022-12-31T06:45:07;99926.09;;;13.84;89.81
68525;BME280;55524;51.380;13.372;2022-12-31T06:47:34;99914.06;;;13.92;89.51
68525;BME280;55524;51.380;13.372;2022-12-31T06:50:00;99941.47;;;13.93;89.69
68525;BME280;55524;51.380;13.372;2022-12-31T06:52:26;99955.75;;;14.06;88.75
68525;BME280;55524;51.380;13.372;2022-12-31T06:54:53;99978.16;;;14.02;89.04
68525;BME280;55524;51.380;13.372;2022-12-31T06:57:19;99976.63;;;14.12;88.46
68525;BME280;55524;51.380;13.372;2022-12-31T06:59:46;99968.38;;;14.17;87.95
68525;BME280;55524;51.380;13.372;2022-12-31T07:10:19;99998.69;;;14.14;88.40
68525;BME280;55524;51.380;13.372;2022-12-31T07:18:44;100004.00;;;14.14;88.33
68525;BME280;55524;51.380;13.372;2022-12-31T07:21:14;100011.84;;;14.16;88.41
68525;BME280;55524;51.380;13.372;2022-12-31T07:23:42;100000.28;;;14.17;88.05
68525;BME280;55524;51.380;13.372;2022-12-31T07:46:06;100011.31;;;14.25;87.91
68525;BME280;55524;51.380;13.372;2022-12-31T07:48:37;100006.88;;;14.40;86.97
68525;BME280;55524;51.380;13.372;2022-12-31T07:51:04;100005.94;;;14.41;86.75
68525;BME280;55524;51.380;13.372;2022-12-31T07:53:30;100028.81;;;14.43;86.79
68525;BME280;55524;51.380;13.372;2022-12-31T07:55:59;100033.00;;;14.47;87.21
68525;BME280;55524;51.380;13.372;2022-12-31T07:58:42;100030.28;;;14.49;87.10
68525;BME280;55524;51.380;13.372;2022-12-31T08:01:18;100043.13;;;14.57;86.57
68525;BME280;55524;51.380;13.372;2022-12-31T08:04:17;100041.72;;;14.65;86.53
68525;BME280;55524;51.380;13.372;2022-12-31T08:09:58;100048.47;;;14.71;86.45
68525;BME280;55524;51.380;13.372;2022-12-31T08:12:32;100015.78;;;14.69;86.63
68525;BME280;55524;51.380;13.372;2022-12-31T08:14:59;100028.88;;;14.72;86.69
68525;BME280;55524;51.380;13.372;2022-12-31T08:17:25;100032.88;;;14.65;87.03
68525;BME280;55524;51.380;13.372;2022-12-31T08:19:52;100045.91;;;14.69;86.65
68525;BME280;55524;51.380;13.372;2022-12-31T08:22:38;100044.09;;;14.70;86.83
68525;BME280;55524;51.380;13.372;2022-12-31T08:33:58;100041.06;;;14.76;86.88
68525;BME280;55524;51.380;13.372;2022-12-31T08:42:12;100039.91;;;14.80;86.60
68525;BME280;55524;51.380;13.372;2022-12-31T08:44:54;100039.06;;;14.80;86.92
68525;BME280;55524;51.380;13.372;2022-12-31T08:50:02;100031.47;;;14.88;86.25
68525;BME280;55524;51.380;13.372;2022-12-31T08:52:29;100033.09;;;14.90;85.94
68525;BME280;55524;51.380;13.372;2022-12-31T08:54:55;100029.78;;;15.01;85.46
68525;BME280;55524;51.380;13.372;2022-12-31T08:57:30;100028.63;;;15.05;85.38
68525;BME280;55524;51.380;13.372;2022-12-31T09:00:15;100027.38;;;15.11;85.15
68525;BME280;55524;51.380;13.372;2022-12-31T09:03:45;100028.22;;;15.11;85.28
68525;BME280;55524;51.380;13.372;2022-12-31T09:08:27;100049.59;;;15.24;84.30
68525;BME280;55524;51.380;13.372;2022-12-31T09:17:01;100047.19;;;15.48;83.52
68525;BME280;55524;51.380;13.372;2022-12-31T09:19:29;100050.25;;;15.56;82.93
68525;BME280;55524;51.380;13.372;2022-12-31T09:21:56;100059.06;;;15.57;82.86
68525;BME280;55524;51.380;13.372;2022-12-31T09:24:22;100051.16;;;15.55;83.00
68525;BME280;55524;51.380;13.372;2022-12-31T09:27:09;100050.31;;;15.55;83.19
68525;BME280;55524;51.380;13.372;2022-12-31T09:32:29;100037.00;;;15.69;81.80
68525;BME280;55524;51.380;13.372;2022-12-31T09:35:24;100045.44;;;15.76;82.26
68525;BME280;55524;51.380;13.372;2022-12-31T09:37:52;100045.66;;;15.72;82.00
68525;BME280;55524;51.380;13.372;2022-12-31T09:51:47;100056.91;;;15.90;81.06
68525;BME280;55524;51.380;13.372;2022-12-31T09:57:01;100066.41;;;15.94;80.67
68525;BME280;55524;51.380;13.372;2022-12-31T10:02:46;100072.50;;;15.96;80.77
68525;BME280;55524;51.380;13.372;2022-12-31T10:06:05;100075.59;;;16.03;80.45
68525;BME280;55524;51.380;13.372;2022-12-31T10:26:25;100054.38;;;16.02;80.63
68525;BME280;55524;51.380;13.372;2022-12-31T10:37:30;100062.53;;;16.13;80.94
68525;BME280;55524;51.380;13.372;2022-12-31T10:40:42;100071.50;;;16.12;80.75
68525;BME280;55524;51.380;13.372;2022-12-31T10:43:32;100078.91;;;16.07;80.81
68525;BME280;55524;51.380;13.372;2022-12-31T10:58:01;100056.50;;;16.23;79.58
68525;BME280;55524;51.380;13.372;2022-12-31T11:09:52;100101.97;;;16.08;80.56
68525;BME280;55524;51.380;13.372;2022-12-31T11:18:14;100113.59;;;16.07;80.63
68525;BME280;55524;51.380;13.372;2022-12-31T11:29:47;100119.75;;;16.34;79.83
68525;BME280;55524;51.380;13.372;2022-12-31T11:43:38;100104.03;;;16.69;77.44
68525;BME280;55524;51.380;13.372;2022-12-31T12:00:02;100086.22;;;16.70;77.92
68525;BME280;55524;51.380;13.372;2022-12-31T12:02:41;100089.31;;;16.64;78.10
68525;BME280;55524;51.380;13.372;2022-12-31T12:05:08;100082.06;;;16.66;77.95
68525;BME280;55524;51.380;13.372;2022-12-31T12:07:38;100090.91;;;16.66;78.22
68525;BME280;55524;51.380;13.372;2022-12-31T12:12:59;100078.44;;;16.67;77.51
68525;BME280;55524;51.380;13.372;2022-12-31T12:15:29;100083.78;;;16.67;78.16
68525;BME280;55524;51.380;13.372;2022-12-31T12:17:59;100073.84;;;16.69;77.63
68525;BME280;55524;51.380;13.372;2022-12-31T12:20:31;100093.25;;;16.58;78.30
68525;BME280;55524;51.380;13.372;2022-12-31T12:23:01;100083.56;;;16.70;77.41
68525;BME280;55524;51.380;13.372;2022-12-31T12:25:40;100080.34;;;16.65;78.03
68525;BME280;55524;51.380;13.372;2022-12-31T12:28:58;100089.84;;;16.69;77.80
68525;BME280;55524;51.380;13.372;2022-12-31T12:31:05;100084.41;;;16.70;77.69
68525;BME280;55524;51.380;13.372;2022-12-31T12:33:45;100091.03;;;16.65;77.48
68525;BME280;55524;51.380;13.372;2022-12-31T12:36:14;100090.50;;;16.60;77.96
68525;BME280;55524;51.380;13.372;2022-12-31T12:38:41;100088.13;;;16.55;77.99
68525;BME280;55524;51.380;13.372;2022-12-31T12:41:34;100084.19;;;16.48;78.59
68525;BME280;55524;51.380;13.372;2022-12-31T12:44:06;100096.22;;;16.54;77.63
68525;BME280;55524;51.380;13.372;2022-12-31T12:46:47;100090.69;;;16.57;77.37
68525;BME280;55524;51.380;13.372;2022-12-31T12:49:26;100102.66;;;16.51;78.03
68525;BME280;55524;51.380;13.372;2022-12-31T12:54:58;100106.81;;;16.55;78.60
68525;BME280;55524;51.380;13.372;2022-12-31T12:57:52;100105.19;;;16.53;78.05
68525;BME280;55524;51.380;13.372;2022-12-31T13:00:28;100107.75;;;16.54;77.67
68525;BME280;55524;51.380;13.372;2022-12-31T13:03:26;100103.06;;;16.58;77.78
68525;BME280;55524;51.380;13.372;2022-12-31T13:12:18;100108.09;;;16.62;77.12
68525;BME280;55524;51.380;13.372;2022-12-31T13:15:16;100113.53;;;16.61;77.68
68525;BME280;55524;51.380;13.372;2022-12-31T13:17:52;100119.19;;;16.56;78.11
68525;BME280;55524;51.380;13.372;2022-12-31T13:23:30;100129.00;;;16.56;78.12
68525;BME280;55524;51.380;13.372;2022-12-31T13:26:19;100132.00;;;16.51;78.34
68525;BME280;55524;51.380;13.372;2022-12-31T13:28:49;100135.25;;;16.42;78.79
68525;BME280;55524;51.380;13.372;2022-12-31T13:31:21;100151.19;;;16.43;78.79
68525;BME280;55524;51.380;13.372;2022-12-31T13:33:57;100139.75;;;16.41;78.64
68525;BME280;55524;51.380;13.372;2022-12-31T13:36:26;100150.84;;;16.35;78.67
68525;BME280;55524;51.380;13.372;2022-12-31T13:39:03;100149.09;;;16.34;78.63
68525;BME280;55524;51.380;13.372;2022-12-31T13:41:57;100156.91;;;16.37;78.18
68525;BME280;55524;51.380;13.372;2022-12-31T13:47:15;100143.75;;;16.34;78.59
68525;BME280;55524;51.380;13.372;2022-12-31T13:50:00;100150.19;;;16.32;78.63
68525;BME280;55524;51.380;13.372;2022-12-31T13:57:44;100144.19;;;16.28;78.87
68525;BME280;55524;51.380;13.372;2022-12-31T14:01:02;100142.06;;;16.33;78.28
68525;BME280;55524;51.380;13.372;2022-12-31T14:03:29;100148.44;;;16.31;78.64
68525;BME280;55524;51.380;13.372;2022-12-31T14:06:08;100149.41;;;16.30;78.68
68525;BME280;55524;51.380;13.372;2022-12-31T14:08:36;100155.78;;;16.27;79.01
68525;BME280;55524;51.380;13.372;2022-12-31T14:21:27;100189.56;;;16.14;79.06
68525;BME280;55524;51.380;13.372;2022-12-31T14:24:16;100185.25;;;16.11;79.68
68525;BME280;55524;51.380;13.372;2022-12-31T14:26:53;100178.63;;;16.04;79.64
68525;BME280;55524;51.380;13.372;2022-12-31T14:29:46;100196.22;;;16.07;79.52
68525;BME280;55524;51.380;13.372;2022-12-31T14:32:44;100192.63;;;16.08;79.33
68525;BME280;55524;51.380;13.372;2022-12-31T14:35:45;100203.38;;;16.06;79.14
68525;BME280;55524;51.380;13.372;2022-12-31T14:47:52;100232.63;;;15.93;79.99
68525;BME280;55524;51.380;13.372;2022-12-31T14:50:27;100232.06;;;15.88;80.17
68525;BME280;55524;51.380;13.372;2022-12-31T14:55:36;100243.41;;;15.92;79.46
68525;BME280;55524;51.380;13.372;2022-12-31T14:58:36;100242.13;;;15.97;79.52
68525;BME280;55524;51.380;13.372;2022-12-31T15:01:06;100239.28;;;15.86;80.03
68525;BME280;55524;51.380;13.372;2022-12-31T15:03:44;100233.00;;;15.87;79.54
68525;BME280;55524;51.380;13.372;2022-12-31T15:12:10;100231.69;;;15.66;80.60
68525;BME280;55524;51.380;13.372;2022-12-31T15:19:54;100238.88;;;15.49;81.16
68525;BME280;55524;51.380;13.372;2022-12-31T15:24:55;100221.28;;;15.61;80.39
68525;BME280;55524;51.380;13.372;2022-12-31T15:27:36;100226.91;;;15.57;80.69
68525;BME280;55524;51.380;13.372;2022-12-31T15:30:04;100217.84;;;15.59;80.29
68525;BME280;55524;51.380;13.372;2022-12-31T15:32:39;100222.72;;;15.67;79.85
68525;BME280;55524;51.380;13.372;2022-12-31T15:38:18;100237.00;;;15.66;79.58
68525;BME280;55524;51.380;13.372;2022-12-31T15:40:54;100250.88;;;15.57;79.96
68525;BME280;55524;51.380;13.372;2022-12-31T15:43:46;100256.66;;;15.49;80.38
68525;BME280;55524;51.380;13.372;2022-12-31T15:46:16;100263.59;;;15.37;80.92
68525;BME280;55524;51.380;13.372;2022-12-31T15:48:50;100270.56;;;15.24;82.20
68525;BME280;55524;51.380;13.372;2022-12-31T15:51:40;100276.84;;;15.23;82.47
68525;BME280;55524;51.380;13.372;2022-12-31T15:54:37;100287.47;;;15.09;82.94
68525;BME280;55524;51.380;13.372;2022-12-31T15:57:03;100296.09;;;14.98;83.65
68525;BME280;55524;51.380;13.372;2022-12-31T15:59:31;100290.94;;;14.95;83.60
68525;BME280;55524;51.380;13.372;2022-12-31T16:01:57;100292.16;;;14.89;84.07
68525;BME280;55524;51.380;13.372;2022-12-31T16:04:29;100301.16;;;14.87;84.20
68525;BME280;55524;51.380;13.372;2022-12-31T16:06:59;100295.25;;;14.82;84.50
68525;BME280;55524;51.380;13.372;2022-12-31T16:09:29;100297.72;;;14.85;84.47
68525;BME280;55524;51.380;13.372;2022-12-31T16:11:57;100283.34;;;14.73;84.76
68525;BME280;55524;51.380;13.372;2022-12-31T16:14:37;100282.13;;;14.79;84.64
68525;BME280;55524;51.380;13.372;2022-12-31T16:17:56;100279.34;;;14.80;84.90
68525;BME280;55524;51.380;13.372;2022-12-31T16:20:23;100269.34;;;14.85;84.69
68525;BME280;55524;51.380;13.372;2022-12-31T16:22:52;100274.44;;;14.88;84.35
68525;BME280;55524;51.380;13.372;2022-12-31T16:25:21;100276.25;;;14.88;84.55
68525;BME280;55524;51.380;13.372;2022-12-31T16:27:49;100273.31;;;14.92;83.96
68525;BME280;55524;51.380;13.372;2022-12-31T16:30:27;100279.94;;;15.01;83.47
68525;BME280;55524;51.380;13.372;2022-12-31T16:33:00;100286.03;;;15.03;83.20
68525;BME280;55524;51.380;13.372;2022-12-31T16:35:35;100286.53;;;15.10;82.88
68525;BME280;55524;51.380;13.372;2022-12-31T16:38:17;100289.09;;;15.11;82.65
68525;BME280;55524;51.380;13.372;2022-12-31T16:41:12;100300.28;;;15.02;83.18
68525;BME280;55524;51.380;13.372;2022-12-31T16:43:42;100285.50;;;14.96;83.54
68525;BME280;55524;51.380;13.372;2022-12-31T16:49:10;100308.88;;;14.91;83.75
68525;BME280;55524;51.380;13.372;2022-12-31T16:51:40;100310.78;;;14.89;84.11
68525;BME280;55524;51.380;13.372;2022-12-31T16:54:18;100296.09;;;14.98;83.40
68525;BME280;55524;51.380;13.372;2022-12-31T16:56:45;100306.63;;;14.99;83.40
68525;BME280;55524;51.380;13.372;2022-12-31T16:59:20;100308.53;;;14.97;83.61
68525;BME280;55524;51.380;13.372;2022-12-31T17:01:50;100313.06;;;14.95;83.31
68525;BME280;55524;51.380;13.372;2022-12-31T17:04:18;100303.47;;;14.93;83.75
68525;BME280;55524;51.380;13.372;2022-12-31T17:06:47;100315.72;;;14.95;83.68
68525;BME280;55524;51.380;13.372;2022-12-31T17:09:18;100320.88;;;14.98;83.31
68525;BME280;55524;51.380;13.372;2022-12-31T17:11:53;100328.09;;;14.96;83.38
68525;BME280;55524;51.380;13.372;2022-12-31T17:14:23;100326.34;;;15.11;82.37
68525;BME280;55524;51.380;13.372;2022-12-31T17:19:38;100332.91;;;15.06;82.65
68525;BME280;55524;51.380;13.372;2022-12-31T17:24:49;100341.97;;;15.17;81.92
68525;BME280;55524;51.380;13.372;2022-12-31T17:27:16;100342.31;;;15.11;82.04
68525;BME280;55524;51.380;13.372;2022-12-31T17:29:43;100334.28;;;15.13;82.20
68525;BME280;55524;51.380;13.372;2022-12-31T17:32:34;100332.53;;;15.12;82.17
68525;BME280;55524;51.380;13.372;2022-12-31T17:35:01;100342.91;;;15.16;82.01